1959 CHARLOTT:CHARLOTTE (1959281N09143)


On this page: IBTrACS data - Map and Plots - Positions - Intensities - Original source data

Summary

Start Oct 7
End Oct 20
Basin WP
LMI 175 kt
Sources jtwc_wp
tokyo
cma
td9636
td9635
ds824_wp
In WMO? Yes
Previous storm 1959 IRENE (NA)
Previous in basin 1959 BABS (WP)
Concurrent storms 1959 HANNAH (NA)
1959 AMY (WP)
1959 BABS (WP)
1959 IRENE (NA)
1959 CHARLOTT (WP)
1959 14A (NI)
1959 DINAH (WP)
1959 JUDITH (NA)
1959 MISSING (EP)
Next in basin 1959 DINAH (WP)
Next storm 1959 14A (NI)

top of page IBTrACS Data: File Access

No storm imagery available

top of page Plots:

Map of storm track will not appear if FTP is down
Time series of cyclone Maximum Sustained Wind will not appear if FTP is down
Time series of cyclone Minimum Central Pressure will not appear if FTP is down

top of page Track Data:Position

jtwc_wp tokyo cma td9636 td9635 ds824_wp
Date Lat Lon Lat Lon Lat Lon Lat Lon Lat Lon Lat Lon
1959-10-07 18:00:00 9.0 142.8
1959-10-08 00:00:00 9.2 141.6
1959-10-08 06:00:00 9.4 140.5
1959-10-08 12:00:00 9.6 139.4
1959-10-08 18:00:00 9.8 138.5
1959-10-09 00:00:00 10.2 137.6 10.2 137.5 10.3 137.5 10.2 137.6 10.2 137.6 10.2 137.6
1959-10-09 06:00:00 10.8 136.9 10.8 136.8 10.8 136.7 10.8 136.9 10.8 136.9 10.8 136.9
1959-10-09 12:00:00 11.4 136.2 11.3 136.0 11.2 136.1 11.4 136.2 11.4 136.2 11.4 136.2
1959-10-09 18:00:00 11.9 135.5 11.8 135.3 11.6 135.4 12.0 135.5 11.9 135.5 11.9 135.5
1959-10-10 00:00:00 12.5 134.8 12.2 134.7 12.4 134.7 12.5 134.8 12.5 134.8 12.5 134.8
1959-10-10 06:00:00 15.0 134.1 12.8 134.1 13.0 134.3 12.9 134.2 15.0 134.1 13.0 134.1
1959-10-10 12:00:00 15.4 133.6 13.2 133.4 13.4 133.6 13.3 133.7 15.4 133.6 13.4 133.6
1959-10-10 18:00:00 13.7 133.1 13.6 133.0 13.8 132.9 13.7 133.1 13.7 133.1 13.7 133.1
1959-10-11 00:00:00 14.2 132.2 14.2 132.0 14.2 132.0 14.2 132.2 14.2 132.2 14.2 132.2
1959-10-11 06:00:00 14.5 131.4 14.6 131.2 14.6 131.4 14.6 131.4 14.5 131.4 14.5 131.4
1959-10-11 12:00:00 14.9 130.6 14.7 130.5 14.8 130.6 14.9 130.6 14.9 130.6 14.9 130.6
1959-10-11 18:00:00 15.2 129.8 15.1 129.7 15.1 129.8 15.2 129.8 15.2 129.8 15.2 129.8
1959-10-12 00:00:00 15.6 128.9 15.7 129.1 15.7 129.1 15.6 128.9 15.6 128.9 15.6 128.9
1959-10-12 06:00:00 16.0 128.1 16.1 128.1 16.2 128.3 16.0 128.1 16.0 128.1 16.0 128.1
1959-10-12 12:00:00 16.5 127.3 16.7 127.2 16.7 127.5 16.5 127.3 16.5 127.3 16.5 127.3
1959-10-12 18:00:00 17.0 126.6 17.1 126.4 17.1 126.6 17.1 126.5 17.0 126.6 17.0 126.6
1959-10-13 00:00:00 17.7 125.9 17.7 126.0 17.7 126.0 17.7 125.9 17.7 125.9 17.7 125.9
1959-10-13 06:00:00 18.2 125.6 18.1 125.6 18.2 125.5 18.2 125.5 18.2 125.6 18.2 125.6
1959-10-13 12:00:00 18.7 125.3 18.5 125.4 18.6 125.3 18.7 125.3 18.7 125.3 18.7 125.3
1959-10-13 18:00:00 19.2 125.0 18.9 125.1 19.0 125.1 19.1 125.1 19.2 125.0 19.2 125.0
jtwc_wp tokyo cma td9636 td9635 ds824_wp
1959-10-14 00:00:00 19.5 124.9 19.5 124.8 19.6 124.9 19.5 124.9 19.5 124.9 19.5 124.9
1959-10-14 06:00:00 20.1 124.6 20.1 124.7 20.1 124.7 20.1 124.6 20.1 124.6 20.1 124.6
1959-10-14 12:00:00 20.7 124.3 20.8 124.5 20.8 124.4 20.7 124.3 20.7 124.3 20.7 124.3
1959-10-14 18:00:00 21.3 124.3 21.4 124.2 21.3 124.2 21.2 124.3 21.3 124.3 21.3 124.3
1959-10-15 00:00:00 21.7 124.4 21.7 124.3 21.7 124.3 21.7 124.4 21.7 124.4 21.7 124.4
1959-10-15 06:00:00 22.3 124.7 22.3 124.6 22.3 124.6 22.3 124.7 22.3 124.7 22.3 124.7
1959-10-15 12:00:00 23.0 125.1 22.9 125.1 22.9 125.1 23.0 125.1 23.0 125.1 23.0 125.1
1959-10-15 18:00:00 23.7 125.7 24.0 125.6 23.8 125.7 23.8 125.7 23.7 125.7 23.7 125.7
1959-10-16 00:00:00 24.5 126.5 24.5 126.4 24.5 126.4 24.5 126.5 24.5 126.5 24.5 126.5
1959-10-16 06:00:00 25.1 127.4 25.1 127.2 25.1 127.2 25.1 127.4 25.1 127.4 25.1 127.4
1959-10-16 12:00:00 25.6 128.2 25.5 127.9 25.6 128.1 25.6 128.2 25.6 128.2 25.6 128.2
1959-10-16 18:00:00 26.2 128.8 25.9 128.6 26.1 128.8 26.1 128.9 26.2 128.8 26.2 128.8
1959-10-17 00:00:00 26.5 129.5 26.2 129.1 26.6 129.3 26.5 129.5 26.5 129.5 26.5 129.5
1959-10-17 06:00:00 27.0 130.1 27.1 130.0 27.1 130.0 26.9 130.0 27.0 130.1 27.0 130.1
1959-10-17 12:00:00 27.4 130.7 27.5 131.0 27.5 130.9 27.4 130.7 27.4 130.7 27.4 130.7
1959-10-17 18:00:00 27.8 131.4 28.2 131.8 27.9 131.4 27.9 131.5 27.8 131.4 27.8 131.4
1959-10-18 00:00:00 28.7 132.7 28.5 132.3 28.6 132.4 28.7 132.7 28.7 132.7 28.7 132.7
1959-10-18 06:00:00 30.0 134.6 29.8 133.8 29.9 133.8 29.8 134.2 30.0 134.6 30.0 134.6
1959-10-18 12:00:00 31.2 136.4 31.3 135.6 31.6 135.9 31.2 136.4 31.2 136.4 31.2 136.4
1959-10-18 18:00:00 32.8 139.3 33.2 139.3 33.4 139.3 32.9 139.4 32.8 139.3 32.8 139.3
1959-10-19 00:00:00 34.8 142.8 34.2 141.8 34.0 142.0 34.8 142.8 34.8 142.8 34.8 142.8
1959-10-19 06:00:00 34.7 144.6 35.0 146.0 34.7 146.0 34.7 144.6
1959-10-19 12:00:00 34.5 147.0 35.0 150.0 34.9 150.0 34.5 147.0
1959-10-19 18:00:00 35.0 152.0 35.8 156.0 35.3 156.0 35.0 152.0
jtwc_wp tokyo cma td9636 td9635 ds824_wp
1959-10-20 00:00:00 36.0 161.0 35.8 161.0
1959-10-20 06:00:00 36.0 165.0 35.8 165.0

top of pageTrack Data:Intensity

jtwc_wp tokyo cma td9636 td9635 ds824_wp
Date Wind Pres Wind Pres Wind Pres Wind Pres Wind Pres Wind Pres
1959-10-07 18:00:00 1008.
1959-10-08 00:00:00 1008.
1959-10-08 06:00:00 1008.
1959-10-08 12:00:00 1008.
1959-10-08 18:00:00 1008.
1959-10-09 00:00:00 25. 1008. 29. 1008. 25. 25. 1006. 25.
1959-10-09 06:00:00 30. 1006. 39. 1006. 25. 28. 1006. 30.
1959-10-09 12:00:00 30. 1004. 39. 1004. 30. 30. 1002. 30.
1959-10-09 18:00:00 30. 1002. 39. 1002. 30. 30. 997. 30.
1959-10-10 00:00:00 35. 1000. 39. 1001. 35. 35. 995. 35.
1959-10-10 06:00:00 50. 998. 49. 1000. 35. 48. 997. 50.
1959-10-10 12:00:00 60. 995. 58. 997. 62. 62. 995. 60.
1959-10-10 18:00:00 80. 990. 68. 993. 78. 78. 991. 80.
1959-10-11 00:00:00 80. 990. 78. 989. 82. 82. 989. 80.
1959-10-11 06:00:00 90. 985. 78. 983. 82. 88. 983. 90.
1959-10-11 12:00:00 90. 980. 87. 979. 92. 92. 978. 90.
1959-10-11 18:00:00 100. 975. 97. 976. 92. 100. 974. 100.
1959-10-12 00:00:00 110. 970. 97. 976. 112. 112. 974. 110.
1959-10-12 06:00:00 115. 960. 117. 964. 112. 115. 964. 115.
1959-10-12 12:00:00 120. 950. 136. 951. 118. 118. 952. 120.
1959-10-12 18:00:00 125. 940. 146. 939. 118. 125. 939. 125.
1959-10-13 00:00:00 130. 920. 156. 922. 132. 132. 923. 130.
1959-10-13 06:00:00 140. 905. 175. 909. 132. 140. 909. 140.
1959-10-13 12:00:00 145. 905. 175. 905. 145. 145. 908. 145.
1959-10-13 18:00:00 140. 905. 175. 908. 145. 142. 912. 140.
jtwc_wp tokyo cma td9636 td9635 ds824_wp
1959-10-14 00:00:00 140. 910. 175. 912. 140. 140. 914. 140.
1959-10-14 06:00:00 140. 915. 175. 913. 140. 140. 916. 140.
1959-10-14 12:00:00 140. 920. 165. 919. 140. 140. 921. 140.
1959-10-14 18:00:00 135. 925. 156. 925. 140. 135. 928. 135.
1959-10-15 00:00:00 130. 930. 146. 929. 128. 128. 935. 130.
1959-10-15 06:00:00 120. 935. 126. 937. 128. 122. 939. 120.
1959-10-15 12:00:00 115. 940. 117. 940. 115. 115. 945. 115.
1959-10-15 18:00:00 110. 950. 107. 948. 115. 108. 952. 110.
1959-10-16 00:00:00 100. 955. 97. 957. 102. 102. 955. 100.
1959-10-16 06:00:00 100. 960. 97. 961. 102. 98. 952. 100.
1959-10-16 12:00:00 90. 960. 97. 962. 92. 92. 956. 90.
1959-10-16 18:00:00 90. 965. 97. 962. 92. 88. 960. 90.
1959-10-17 00:00:00 90. 965. 97. 965. 88. 88. 965. 90.
1959-10-17 06:00:00 80. 970. 97. 965. 88. 82. 967. 80.
1959-10-17 12:00:00 80. 970. 87. 973. 78. 78. 968. 80.
1959-10-17 18:00:00 75. 975. 87. 975. 78. 75. 971. 75.
1959-10-18 00:00:00 80. 975. 87. 975. 78. 78. 972. 80.
1959-10-18 06:00:00 75. 975. 87. 975. 78. 75. 970. 75.
1959-10-18 12:00:00 70. 980. 78. 980. 70. 70. 970. 70.
1959-10-18 18:00:00 60. 990. 58. 990. 70. 62. 972. 60.
1959-10-19 00:00:00 60. 990. 49. 990. 60. 60. 974. 60.
1959-10-19 06:00:00 50. 992. 49. 992. 50.
1959-10-19 12:00:00 40. 998. 39. 998. 40.
1959-10-19 18:00:00 30. 1000. 29. 1000. 30.
jtwc_wp tokyo cma td9636 td9635 ds824_wp
1959-10-20 00:00:00 1000. 29. 1000.
1959-10-20 06:00:00 998. 1000.

top of page Links to source data

Source Source file Format
jtwc_wp bwp181959.txt ATCF
tokyo bst_all.txt:Line=7249:CHARLOTTE:5918 JMA text table
cma CH1959BST.txt:Storm=25:Charlotte CMA text table
td9636 cons_worldwide_trop_cyclone_18710101-19891231-003:Line=18394 TD 9636
td9635 typhoons-analogs_19450101-19761231.corrected:Line=11403 TD 9635
ds824_wp w_npac.dat:323:CHARLOTTE HURDAT